Time;durP1;ratioP1;P1;durP2;ratioP2;P2;SDS_P1;SDS_P2;PMS_P1;PMS_P2;Temp;Humidity;BMP_temperature;BMP_pressure;BME280_temperature;BME280_humidity;BME280_pressure;Samples;Min_cycle;Max_cycle;Signal;HPM_P1;HPM_P2
2022/04/23 00:00:30;;;;;;;6.70;6.10;;;20.30;42.40;;;;;;5017791;28;20669;-71
2022/04/23 00:02:59;;;;;;;6.60;6.00;;;20.30;42.40;;;;;;5018088;28;20673;-73
2022/04/23 00:05:26;;;;;;;6.80;6.20;;;20.30;42.50;;;;;;5017707;28;20203;-70
2022/04/23 00:07:53;;;;;;;7.43;6.22;;;20.30;42.50;;;;;;5017660;28;20226;-72
2022/04/23 00:10:23;;;;;;;7.53;6.13;;;20.30;42.50;;;;;;5017511;28;20204;-72
2022/04/23 00:12:50;;;;;;;6.90;6.32;;;20.30;42.60;;;;;;5018007;28;20204;-71
2022/04/23 00:15:17;;;;;;;6.22;5.63;;;20.20;42.50;;;;;;5035425;28;20212;-72
2022/04/23 00:17:47;;;;;;;6.93;6.35;;;20.20;42.50;;;;;;5035450;28;20658;-71
2022/04/23 00:20:14;;;;;;;6.95;6.25;;;20.20;42.50;;;;;;5034990;28;20188;-72
2022/04/23 00:22:41;;;;;;;6.85;6.25;;;20.20;42.50;;;;;;5035317;28;20192;-72
2022/04/23 00:25:09;;;;;;;6.28;5.68;;;20.10;42.50;;;;;;5035206;28;20266;-72
2022/04/23 00:27:37;;;;;;;6.35;5.82;;;20.10;42.50;;;;;;5035151;28;20294;-71
2022/04/23 00:30:05;;;;;;;7.93;5.65;;;20.10;42.50;;;;;;5033620;28;20594;-72
2022/04/23 00:32:33;;;;;;;6.53;5.95;;;20.10;42.50;;;;;;5017353;28;20615;-72
2022/04/23 00:35:00;;;;;;;6.40;5.80;;;20.10;42.50;;;;;;5017195;28;20251;-72
2022/04/23 00:37:27;;;;;;;6.30;5.80;;;20.10;42.60;;;;;;5017681;28;20202;-72
2022/04/23 00:39:54;;;;;;;7.35;5.85;;;20.00;42.60;;;;;;5016692;28;20203;-72
2022/04/23 00:42:21;;;;;;;5.82;5.43;;;20.00;42.50;;;;;;5034794;28;20192;-72
2022/04/23 00:44:49;;;;;;;5.97;5.47;;;20.00;42.50;;;;;;5018029;28;20223;-72
2022/04/23 00:47:16;;;;;;;6.35;5.65;;;20.00;42.70;;;;;;5037643;28;20194;-73
2022/04/23 00:49:43;;;;;;;6.13;5.63;;;20.00;42.70;;;;;;5019603;28;20351;-72
2022/04/23 00:52:11;;;;;;;6.32;5.72;;;20.00;42.70;;;;;;5016908;28;20207;-72
2022/04/23 00:54:38;;;;;;;6.68;6.07;;;19.90;42.70;;;;;;5016631;28;20224;-72
2022/04/23 00:57:06;;;;;;;6.72;6.15;;;19.90;42.70;;;;;;5034342;28;20188;-72
2022/04/23 00:59:34;;;;;;;6.35;5.75;;;19.90;42.80;;;;;;5016682;28;20662;-72
2022/04/23 01:02:03;;;;;;;6.57;5.97;;;19.90;42.70;;;;;;5016907;28;20576;-71
2022/04/23 01:04:30;;;;;;;6.18;5.65;;;19.90;43.40;;;;;;5016479;28;20219;-71
2022/04/23 01:06:59;;;;;;;6.40;5.80;;;19.90;42.80;;;;;;5016401;28;20196;-72
2022/04/23 01:09:25;;;;;;;5.90;5.40;;;19.90;42.90;;;;;;5032734;28;20248;-72
2022/04/23 01:11:52;;;;;;;6.18;5.68;;;19.80;42.70;;;;;;5034229;28;20184;-72
2022/04/23 01:14:19;;;;;;;5.88;5.32;;;19.80;42.80;;;;;;5016308;28;20616;-72
2022/04/23 01:16:47;;;;;;;6.30;5.80;;;19.80;42.90;;;;;;5034013;28;20239;-72
2022/04/23 01:19:15;;;;;;;6.10;5.60;;;19.80;43.00;;;;;;5016280;28;20246;-72
2022/04/23 01:21:44;;;;;;;6.22;5.68;;;19.70;42.90;;;;;;5016208;28;20211;-72
2022/04/23 01:24:12;;;;;;;6.13;5.63;;;19.70;42.90;;;;;;5032576;28;20764;-72
2022/04/23 01:26:39;;;;;;;6.50;5.90;;;19.70;43.00;;;;;;5034502;28;20275;-72
2022/04/23 01:29:06;;;;;;;6.63;6.13;;;19.70;43.10;;;;;;5033975;28;20218;-72
2022/04/23 01:31:34;;;;;;;5.93;5.43;;;19.70;43.20;;;;;;5032575;28;20559;-72
2022/04/23 01:34:01;;;;;;;6.38;5.88;;;19.60;43.20;;;;;;5033672;28;20743;-72
2022/04/23 01:36:28;;;;;;;6.32;5.43;;;19.70;43.30;;;;;;5015966;28;20192;-72
2022/04/23 01:38:57;;;;;;;5.93;5.53;;;19.70;43.30;;;;;;5016374;28;20577;-72
2022/04/23 01:41:24;;;;;;;5.90;5.40;;;19.60;43.20;;;;;;5033809;28;20674;-72
2022/04/23 01:43:51;;;;;;;5.95;5.45;;;19.60;43.80;;;;;;5015752;28;20258;-72
2022/04/23 01:46:18;;;;;;;5.72;5.30;;;19.60;43.30;;;;;;5015816;28;20722;-73
2022/04/23 01:48:45;;;;;;;5.97;5.47;;;19.60;43.30;;;;;;5033754;28;20263;-72
2022/04/23 01:51:12;;;;;;;6.05;5.55;;;19.60;43.30;;;;;;5032407;28;20233;-72
2022/04/23 01:53:40;;;;;;;6.10;5.60;;;19.60;43.30;;;;;;5032351;28;20234;-72
2022/04/23 01:56:08;;;;;;;6.18;5.68;;;19.60;43.30;;;;;;5033492;28;20211;-72
2022/04/23 01:58:35;;;;;;;5.53;5.13;;;19.60;43.30;;;;;;5033396;28;20208;-72
2022/04/23 02:01:02;;;;;;;5.57;5.15;;;19.60;43.30;;;;;;5032223;28;20206;-72
2022/04/23 02:03:29;;;;;;;5.97;5.45;;;19.50;43.20;;;;;;5032026;28;20260;-72
2022/04/23 02:05:57;;;;;;;6.03;5.55;;;19.50;43.30;;;;;;5033648;28;20184;-72
2022/04/23 02:08:24;;;;;;;5.63;5.13;;;19.50;43.30;;;;;;5031950;28;20223;-72
2022/04/23 02:10:52;;;;;;;5.80;5.30;;;19.50;43.20;;;;;;5015601;28;20200;-72
2022/04/23 02:13:20;;;;;;;5.50;5.10;;;19.50;43.30;;;;;;5032104;28;20220;-72
2022/04/23 02:15:47;;;;;;;5.85;5.32;;;19.50;43.30;;;;;;5033571;28;20199;-72
2022/04/23 02:18:16;;;;;;;6.07;5.57;;;19.50;43.30;;;;;;5032239;28;20195;-72
2022/04/23 02:20:43;;;;;;;6.13;5.53;;;19.50;43.30;;;;;;5200048;22;20228;-71
2022/04/23 02:23:11;;;;;;;6.00;5.47;;;19.50;43.20;;;;;;4996905;28;20192;-71
2022/04/23 02:25:37;;;;;;;5.95;5.40;;;19.50;43.20;;;;;;4996078;28;20203;-71
2022/04/23 02:28:05;;;;;;;5.75;5.35;;;19.50;43.10;;;;;;4995923;28;20577;-71
2022/04/23 02:30:34;;;;;;;5.65;5.15;;;19.50;43.20;;;;;;4995791;28;20205;-71
2022/04/23 02:33:01;;;;;;;5.32;4.93;;;19.50;43.20;;;;;;4995830;28;20193;-71
2022/04/23 02:35:28;;;;;;;5.57;5.07;;;19.50;43.10;;;;;;4995902;28;20200;-70
2022/04/23 02:37:56;;;;;;;5.20;4.80;;;19.50;43.20;;;;;;4996604;28;20681;-71
2022/04/23 02:40:23;;;;;;;5.32;4.82;;;19.50;43.10;;;;;;5013737;28;20189;-71
2022/04/23 02:42:51;;;;;;;5.50;5.03;;;19.40;43.10;;;;;;5013447;28;20189;-71
2022/04/23 02:45:20;;;;;;;5.30;4.90;;;19.40;43.10;;;;;;4995578;28;20216;-71
2022/04/23 02:47:49;;;;;;;5.47;5.07;;;19.40;43.20;;;;;;4995783;28;20667;-71
2022/04/23 02:50:28;;;;;;;5.88;5.38;;;19.40;43.10;;;;;;4995545;28;20223;-71
2022/04/23 02:52:56;;;;;;;5.50;5.10;;;19.40;43.20;;;;;;5013658;28;20631;-71
2022/04/23 02:55:23;;;;;;;5.50;5.10;;;19.40;43.20;;;;;;5013247;28;20193;-71
2022/04/23 02:57:51;;;;;;;6.20;5.60;;;19.30;43.10;;;;;;4995716;28;20201;-71
2022/04/23 03:00:19;;;;;;;5.65;5.25;;;19.30;43.10;;;;;;4995621;28;20651;-71
2022/04/23 03:02:48;;;;;;;5.20;4.80;;;19.30;43.10;;;;;;4998090;28;20201;-71
2022/04/23 03:05:15;;;;;;;5.30;4.90;;;19.30;43.10;;;;;;4999032;28;20220;-71
2022/04/23 03:07:42;;;;;;;5.50;5.10;;;19.30;43.10;;;;;;5017130;28;20193;-71
2022/04/23 03:10:11;;;;;;;5.43;5.03;;;19.30;43.00;;;;;;4999192;28;20259;-71
2022/04/23 03:12:38;;;;;;;5.50;5.10;;;19.20;43.00;;;;;;4999356;28;20203;-71
2022/04/23 03:15:06;;;;;;;5.32;4.93;;;19.30;43.20;;;;;;4998991;28;20220;-71
2022/04/23 03:17:33;;;;;;;5.20;4.80;;;19.20;43.20;;;;;;4999006;28;20624;-71
2022/04/23 03:20:02;;;;;;;5.60;5.20;;;19.20;43.10;;;;;;5016394;28;20223;-71
2022/04/23 03:22:29;;;;;;;5.47;5.07;;;19.20;43.80;;;;;;4999151;28;20663;-71
2022/04/23 03:24:56;;;;;;;5.18;4.78;;;19.20;43.30;;;;;;5005927;28;20225;-71
2022/04/23 03:27:23;;;;;;;5.50;5.10;;;19.20;43.20;;;;;;5023644;28;20200;-74
2022/04/23 03:29:50;;;;;;;5.75;5.32;;;19.20;43.20;;;;;;5006169;28;20240;-71
2022/04/23 03:32:17;;;;;;;5.38;4.97;;;19.20;43.20;;;;;;4998671;28;20192;-71
2022/04/23 03:34:44;;;;;;;5.60;5.18;;;19.20;43.20;;;;;;5016456;28;20209;-70
2022/04/23 03:37:13;;;;;;;6.22;5.72;;;19.20;43.20;;;;;;4998457;28;20223;-70
2022/04/23 03:39:40;;;;;;;5.50;5.10;;;19.20;43.30;;;;;;4998433;28;20197;-71
2022/04/23 03:42:08;;;;;;;5.35;4.88;;;19.20;43.20;;;;;;4998546;28;20200;-71
2022/04/23 03:44:35;;;;;;;5.80;5.28;;;19.20;43.10;;;;;;5015891;28;20295;-70
2022/04/23 03:47:02;;;;;;;5.65;5.20;;;19.20;43.10;;;;;;4998658;28;20201;-71
2022/04/23 03:49:29;;;;;;;5.00;4.60;;;19.20;43.10;;;;;;5015875;28;20648;-71
2022/04/23 03:51:56;;;;;;;5.32;4.90;;;19.30;43.10;;;;;;4998397;28;20283;-70
2022/04/23 03:54:25;;;;;;;5.28;4.88;;;19.30;43.10;;;;;;4998206;28;20224;-71
2022/04/23 03:56:52;;;;;;;5.53;5.13;;;19.20;43.00;;;;;;5015695;28;20193;-70
2022/04/23 03:59:20;;;;;;;5.55;5.15;;;19.20;43.00;;;;;;5015778;28;20191;-71
2022/04/23 04:01:47;;;;;;;5.20;4.80;;;19.20;43.00;;;;;;5015733;28;20633;-71
2022/04/23 04:04:15;;;;;;;5.22;4.82;;;19.20;43.00;;;;;;5016120;28;20582;-71
2022/04/23 04:06:42;;;;;;;5.80;5.30;;;19.20;42.90;;;;;;5015579;28;20196;-70
2022/04/23 04:09:09;;;;;;;5.25;4.85;;;19.20;43.00;;;;;;5015488;28;20213;-70
2022/04/23 04:14:33;;;;;;;4.93;4.53;;;19.20;42.90;;;;;;4969019;28;20267;-70
2022/04/23 04:17:00;;;;;;;5.28;4.88;;;19.20;42.90;;;;;;4998068;28;20203;-70
2022/04/23 04:19:27;;;;;;;5.40;5.00;;;19.20;42.90;;;;;;4997810;28;20251;-70
2022/04/23 04:21:54;;;;;;;4.88;4.57;;;19.20;42.80;;;;;;4997633;28;20200;-71
2022/04/23 04:24:21;;;;;;;4.65;4.35;;;19.30;43.00;;;;;;4997569;28;20216;-70
2022/04/23 04:26:50;;;;;;;4.93;4.50;;;19.30;42.70;;;;;;4997701;28;20220;-70
2022/04/23 04:29:17;;;;;;;4.70;4.38;;;19.30;42.90;;;;;;4997568;28;20220;-71
2022/04/23 04:31:51;;;;;;;4.72;4.40;;;19.30;42.80;;;;;;5014242;28;20205;-71
2022/04/23 04:34:19;;;;;;;4.82;4.43;;;19.30;42.80;;;;;;5015014;28;20216;-71
2022/04/23 04:36:46;;;;;;;4.70;4.40;;;19.30;42.70;;;;;;5013848;28;20196;-71
2022/04/23 04:39:13;;;;;;;5.53;5.13;;;19.40;42.70;;;;;;5252312;22;20225;-71
2022/04/23 04:41:40;;;;;;;5.80;5.30;;;19.40;42.60;;;;;;5013663;28;20193;-71
2022/04/23 04:44:09;;;;;;;6.45;5.85;;;19.40;42.60;;;;;;5023052;28;20719;-72
2022/04/23 04:46:36;;;;;;;5.53;5.13;;;19.40;43.00;;;;;;5089787;22;20235;-72
2022/04/23 04:49:03;;;;;;;5.07;4.68;;;19.40;43.00;;;;;;5035050;28;20200;-71
2022/04/23 04:54:10;;;;;;;5.80;5.30;;;19.40;43.50;;;;;;5002578;28;20248;-73
2022/04/23 04:56:37;;;;;;;5.18;4.78;;;19.40;43.80;;;;;;4997010;28;20201;-72
2022/04/23 04:59:05;;;;;;;5.47;5.05;;;19.30;44.20;;;;;;4997019;28;20193;-72
2022/04/23 05:01:33;;;;;;;5.43;5.03;;;19.40;44.40;;;;;;4997603;28;20201;-72
2022/04/23 05:04:00;;;;;;;5.93;5.53;;;19.40;44.60;;;;;;4996853;28;20710;-73
2022/04/23 05:06:28;;;;;;;5.35;4.85;;;19.40;44.80;;;;;;5125104;23;20307;-72
2022/04/23 05:08:55;;;;;;;5.45;5.05;;;19.40;44.60;;;;;;5014335;28;20610;-71
2022/04/23 05:11:21;;;;;;;5.68;5.28;;;19.50;44.80;;;;;;5093643;22;20287;-71
2022/04/23 05:13:49;;;;;;;5.25;4.85;;;19.50;45.00;;;;;;5000611;28;20224;-71
2022/04/23 05:16:15;;;;;;;4.63;4.28;;;19.50;44.30;;;;;;5088137;22;20300;-72
2022/04/23 05:18:44;;;;;;;4.68;4.38;;;19.60;44.70;;;;;;5014334;28;20212;-68
2022/04/23 05:21:12;;;;;;;4.75;4.45;;;19.60;44.60;;;;;;5190351;22;20311;-71
2022/04/23 05:23:39;;;;;;;4.78;4.47;;;19.60;44.20;;;;;;5019675;28;20207;-70
2022/04/23 05:26:05;;;;;;;5.40;5.00;;;19.60;44.00;;;;;;5032711;28;20200;-70
2022/04/23 05:28:34;;;;;;;4.93;4.53;;;19.60;44.10;;;;;;5032632;28;20290;-72
2022/04/23 05:31:01;;;;;;;4.70;4.28;;;19.60;43.90;;;;;;5032878;28;20262;-72
2022/04/23 05:33:29;;;;;;;4.88;4.55;;;19.70;43.60;;;;;;5032451;28;20619;-72
2022/04/23 05:35:57;;;;;;;5.05;4.55;;;19.70;43.70;;;;;;5032581;28;20575;-71
2022/04/23 05:38:24;;;;;;;5.10;4.70;;;19.80;43.50;;;;;;5034265;28;20192;-71
2022/04/23 05:40:51;;;;;;;4.93;4.53;;;19.80;43.50;;;;;;5033675;28;20188;-71
2022/04/23 05:43:18;;;;;;;4.78;4.43;;;19.80;43.40;;;;;;5033524;28;20252;-68
2022/04/23 05:45:45;;;;;;;5.10;4.70;;;19.80;43.30;;;;;;5032619;28;20207;-69
2022/04/23 05:48:12;;;;;;;4.95;4.55;;;19.80;43.10;;;;;;5032467;28;20204;-69
2022/04/23 05:50:39;;;;;;;4.85;4.50;;;19.90;43.30;;;;;;5033508;28;20214;-69
2022/04/23 05:53:07;;;;;;;4.57;4.18;;;19.90;43.10;;;;;;5160186;22;20225;-71
2022/04/23 05:55:35;;;;;;;4.72;4.32;;;19.90;43.00;;;;;;5015867;28;20198;-71
2022/04/23 05:58:02;;;;;;;4.53;4.22;;;19.90;42.80;;;;;;5033394;28;20194;-71
2022/04/23 06:00:28;;;;;;;4.72;4.40;;;19.90;42.90;;;;;;5015843;28;20188;-69
2022/04/23 06:02:55;;;;;;;5.00;4.60;;;20.00;42.90;;;;;;5015690;28;20606;-68
2022/04/23 06:05:22;;;;;;;4.38;3.97;;;20.00;42.90;;;;;;5015552;28;20315;-69
2022/04/23 06:07:49;;;;;;;4.70;4.30;;;20.00;42.80;;;;;;5015579;28;20192;-69
2022/04/23 06:10:18;;;;;;;4.70;4.40;;;20.00;42.40;;;;;;5015482;28;20223;-69
2022/04/23 06:12:45;;;;;;;4.50;4.20;;;20.00;42.90;;;;;;5188750;23;20234;-71
2022/04/23 06:15:12;;;;;;;4.45;4.15;;;20.00;42.70;;;;;;5030662;28;20215;-71
2022/04/23 06:17:39;;;;;;;4.80;4.40;;;20.00;42.60;;;;;;5015940;28;20204;-70
2022/04/23 06:20:07;;;;;;;4.53;4.22;;;20.00;42.40;;;;;;5032146;28;20605;-71
2022/04/23 06:22:34;;;;;;;4.32;4.03;;;20.00;42.30;;;;;;5015576;28;20200;-71
2022/04/23 06:25:02;;;;;;;4.35;4.00;;;20.00;41.90;;;;;;5032032;28;20227;-71
2022/04/23 06:27:30;;;;;;;4.85;4.45;;;20.10;42.40;;;;;;5032170;28;20611;-71
2022/04/23 06:29:58;;;;;;;4.65;4.35;;;20.10;42.20;;;;;;5033103;28;20215;-71
2022/04/23 06:32:25;;;;;;;4.00;3.70;;;20.10;42.70;;;;;;5015474;28;20242;-71
2022/04/23 06:34:52;;;;;;;4.35;4.05;;;20.10;41.80;;;;;;5031887;28;20258;-71
2022/04/23 06:37:19;;;;;;;4.60;4.20;;;20.20;42.00;;;;;;5017658;28;20206;-70
2022/04/23 06:39:46;;;;;;;4.53;4.22;;;20.20;41.80;;;;;;5035720;28;20721;-70
2022/04/23 06:42:14;;;;;;;4.13;3.83;;;20.20;41.80;;;;;;5035716;28;20196;-71
2022/04/23 06:44:43;;;;;;;4.18;3.88;;;20.20;41.60;;;;;;5035785;28;20307;-71
2022/04/23 06:47:11;;;;;;;4.05;3.75;;;20.30;41.70;;;;;;5035660;28;20677;-70
2022/04/23 06:49:37;;;;;;;4.20;3.90;;;20.30;41.50;;;;;;5018882;28;20220;-71
2022/04/23 06:52:05;;;;;;;4.28;3.90;;;20.30;41.50;;;;;;5019635;28;20204;-71
2022/04/23 06:54:32;;;;;;;4.10;3.80;;;20.30;41.50;;;;;;5036650;28;20211;-71
2022/04/23 06:56:59;;;;;;;3.83;3.53;;;20.30;41.50;;;;;;5036885;28;20188;-71
2022/04/23 06:59:26;;;;;;;3.70;3.50;;;20.40;41.30;;;;;;5018872;28;20211;-70
2022/04/23 07:01:55;;;;;;;4.30;4.00;;;20.40;41.40;;;;;;5036349;28;20224;-71
2022/04/23 07:04:22;;;;;;;4.07;3.78;;;20.30;41.10;;;;;;5036475;28;20270;-71
2022/04/23 07:06:49;;;;;;;4.28;3.97;;;20.40;41.30;;;;;;5036462;28;20562;-70
2022/04/23 07:09:17;;;;;;;4.07;3.78;;;20.40;41.30;;;;;;5018834;28;20670;-70
2022/04/23 07:11:45;;;;;;;3.70;3.50;;;20.40;41.00;;;;;;5036512;28;20238;-71
2022/04/23 07:14:12;;;;;;;3.70;3.40;;;20.40;41.00;;;;;;5036365;28;20240;-71
2022/04/23 07:16:40;;;;;;;4.22;3.92;;;20.50;41.70;;;;;;5018697;28;20196;-70
2022/04/23 07:19:09;;;;;;;4.00;3.70;;;20.50;41.20;;;;;;5035742;28;20254;-71
2022/04/23 07:21:36;;;;;;;3.72;3.53;;;20.50;41.70;;;;;;5035160;28;20210;-71
2022/04/23 07:24:11;;;;;;;4.07;3.78;;;20.50;41.00;;;;;;5018996;28;20208;-71
2022/04/23 07:26:38;;;;;;;3.85;3.55;;;20.60;41.00;;;;;;5019194;28;20199;-69
2022/04/23 07:29:07;;;;;;;4.05;3.75;;;20.60;40.80;;;;;;5036223;28;20191;-69
2022/04/23 07:31:34;;;;;;;4.00;3.70;;;20.60;40.80;;;;;;5036082;28;20212;-69
2022/04/23 07:39:32;;;;;;;3.65;3.35;;;20.80;40.40;;;;;;5036025;28;20187;-69
2022/04/23 07:41:59;;;;;;;3.80;3.53;;;20.90;40.50;;;;;;5035070;28;20223;-71
2022/04/23 07:44:26;;;;;;;3.85;3.50;;;20.90;40.30;;;;;;5035822;28;20713;-69
2022/04/23 07:46:53;;;;;;;3.80;3.50;;;21.00;40.00;;;;;;5034556;28;20192;-69
2022/04/23 07:49:20;;;;;;;3.42;3.20;;;21.10;40.10;;;;;;5035649;28;20724;-68
2022/04/23 07:51:50;;;;;;;3.70;3.50;;;21.10;40.00;;;;;;5034263;28;20212;-69
2022/04/23 07:54:17;;;;;;;3.38;3.17;;;21.20;39.80;;;;;;5034319;28;20572;-68
2022/04/23 07:56:45;;;;;;;3.40;3.20;;;21.20;39.80;;;;;;5017829;28;20196;-68
2022/04/23 07:59:12;;;;;;;3.20;3.00;;;21.30;39.80;;;;;;5035505;28;20188;-69
2022/04/23 08:01:39;;;;;;;3.70;3.42;;;21.30;39.60;;;;;;5035515;28;20263;-69
2022/04/23 08:04:06;;;;;;;3.25;3.05;;;21.30;39.60;;;;;;5017620;28;20677;-69
2022/04/23 08:06:33;;;;;;;3.92;3.53;;;21.30;39.40;;;;;;5035297;28;20279;-70
2022/04/23 08:09:02;;;;;;;3.40;3.10;;;21.40;39.50;;;;;;5034198;28;20551;-70
2022/04/23 08:11:29;;;;;;;3.08;2.88;;;21.40;39.50;;;;;;5017303;28;20312;-70
2022/04/23 08:13:56;;;;;;;4.10;3.80;;;21.40;39.50;;;;;;5017580;28;20227;-69
2022/04/23 08:16:26;;;;;;;3.35;3.15;;;21.40;39.40;;;;;;5034301;28;20582;-70
2022/04/23 08:18:54;;;;;;;3.20;3.00;;;21.40;39.40;;;;;;5017457;28;20606;-69
2022/04/23 08:21:22;;;;;;;3.83;3.53;;;21.40;39.40;;;;;;5035364;28;20272;-70
2022/04/23 08:23:49;;;;;;;3.38;3.17;;;21.40;39.40;;;;;;5033707;28;20220;-69
2022/04/23 08:26:17;;;;;;;4.00;3.70;;;21.40;40.00;;;;;;5035273;28;20192;-70
2022/04/23 08:31:29;;;;;;;3.53;3.22;;;21.40;39.10;;;;;;5053801;28;20184;-70
2022/04/23 08:33:59;;;;;;;4.38;4.07;;;21.40;39.30;;;;;;5046280;28;20227;-70
2022/04/23 08:36:29;;;;;;;3.65;3.35;;;21.40;39.70;;;;;;5035102;28;20183;-70
2022/04/23 08:38:56;;;;;;;4.00;3.70;;;21.40;39.20;;;;;;5034751;28;20192;-70
2022/04/23 08:41:28;;;;;;;4.35;4.05;;;21.40;39.20;;;;;;5033711;28;20246;-70
2022/04/23 08:43:57;;;;;;;3.95;3.65;;;21.40;39.30;;;;;;5033381;28;20211;-70
2022/04/23 08:46:26;;;;;;;3.80;3.50;;;21.40;39.30;;;;;;5033384;28;20291;-70
2022/04/23 08:48:56;;;;;;;3.92;3.63;;;21.40;39.30;;;;;;5285188;22;20660;-69
2022/04/23 08:51:23;;;;;;;3.38;2.78;;;21.40;39.10;;;;;;5016975;28;20678;-69
2022/04/23 08:53:51;;;;;;;3.88;3.63;;;21.40;39.30;;;;;;5033468;28;20223;-69
2022/04/23 08:56:18;;;;;;;4.10;3.80;;;21.50;39.10;;;;;;5016696;28;20242;-69
2022/04/23 08:58:47;;;;;;;3.70;3.50;;;21.50;39.00;;;;;;5033149;28;20207;-69
2022/04/23 09:01:14;;;;;;;4.13;3.50;;;21.50;39.00;;;;;;5016513;28;20290;-69
2022/04/23 09:03:41;;;;;;;3.50;3.28;;;21.60;39.10;;;;;;5016534;28;20216;-70
2022/04/23 09:06:08;;;;;;;3.88;3.58;;;21.50;39.60;;;;;;5034206;28;20190;-69
2022/04/23 09:08:35;;;;;;;3.63;3.42;;;21.60;38.80;;;;;;5016571;28;20294;-69
2022/04/23 09:11:02;;;;;;;3.80;3.50;;;21.60;38.90;;;;;;5016636;28;20231;-69
2022/04/23 09:13:30;;;;;;;3.78;3.47;;;21.70;38.70;;;;;;5016635;28;20224;-69
2022/04/23 09:24:20;;;;;;;3.85;3.55;;;21.70;38.50;;;;;;5016414;28;20247;-69
2022/04/23 09:27:02;;;;;;;4.25;3.65;;;21.70;38.70;;;;;;5032622;28;20199;-69
2022/04/23 09:29:30;;;;;;;3.88;3.58;;;21.70;38.50;;;;;;5034313;28;20180;-69
2022/04/23 09:32:10;;;;;;;3.80;3.50;;;21.80;38.50;;;;;;5033838;28;20208;-69
2022/04/23 09:34:38;;;;;;;3.78;3.50;;;21.80;38.50;;;;;;5033826;28;20208;-70
2022/04/23 09:37:06;;;;;;;3.95;3.65;;;21.80;38.40;;;;;;5016133;28;20230;-69
2022/04/23 09:39:34;;;;;;;3.65;3.35;;;21.80;38.50;;;;;;5033740;28;20275;-70
2022/04/23 09:42:18;;;;;;;3.45;3.25;;;21.80;38.40;;;;;;5033644;28;20195;-69
2022/04/23 09:44:45;;;;;;;4.25;3.95;;;21.80;38.40;;;;;;5032407;28;20219;-70
2022/04/23 09:47:28;;;;;;;3.88;3.50;;;21.90;38.40;;;;;;5015996;28;20211;-70
2022/04/23 09:49:55;;;;;;;3.38;3.15;;;21.90;38.80;;;;;;5033895;28;20200;-70
2022/04/23 09:52:27;;;;;;;3.80;3.50;;;21.90;38.20;;;;;;5032636;28;20251;-69
2022/04/23 09:54:53;;;;;;;4.00;3.70;;;21.90;38.80;;;;;;5016247;28;20231;-70
2022/04/23 09:57:20;;;;;;;3.72;3.42;;;21.90;38.20;;;;;;5016131;28;20295;-70
2022/04/23 09:59:48;;;;;;;3.60;3.30;;;21.90;38.20;;;;;;5016066;28;20317;-69
2022/04/23 10:02:19;;;;;;;3.45;3.20;;;21.90;38.20;;;;;;5044812;28;20311;-70
2022/04/23 10:04:46;;;;;;;4.53;4.13;;;21.90;38.20;;;;;;5020519;28;20255;-70
2022/04/23 10:07:13;;;;;;;3.30;3.10;;;21.90;38.10;;;;;;5033507;28;20192;-69
2022/04/23 10:09:41;;;;;;;3.72;3.42;;;22.00;38.20;;;;;;5015813;28;20203;-69
2022/04/23 10:12:09;;;;;;;3.42;3.22;;;22.00;38.00;;;;;;5034113;28;20234;-70
2022/04/23 10:14:43;;;;;;;3.60;3.30;;;22.00;38.00;;;;;;5037499;28;20211;-70
2022/04/23 10:17:14;;;;;;;3.30;3.10;;;22.00;38.20;;;;;;5019900;28;20192;-70
2022/04/23 10:19:42;;;;;;;4.10;3.80;;;22.00;38.00;;;;;;5037966;28;20176;-69
2022/04/23 10:22:14;;;;;;;3.92;3.63;;;22.00;37.80;;;;;;5037530;28;20724;-69
2022/04/23 10:24:44;;;;;;;3.45;3.25;;;22.00;37.80;;;;;;5020057;28;20227;-70
2022/04/23 10:27:10;;;;;;;3.72;3.42;;;22.00;38.00;;;;;;5019412;28;20203;-69
2022/04/23 10:29:38;;;;;;;3.70;3.40;;;22.00;38.00;;;;;;5035922;28;20192;-69
2022/04/23 10:32:19;;;;;;;3.75;3.45;;;22.00;37.90;;;;;;5037433;28;20585;-70
2022/04/23 10:34:48;;;;;;;3.28;3.08;;;22.10;38.00;;;;;;5035859;28;20222;-70
2022/04/23 10:37:16;;;;;;;3.70;3.20;;;22.10;38.00;;;;;;5035949;28;20196;-70
2022/04/23 10:39:45;;;;;;;3.33;3.05;;;22.10;37.80;;;;;;5039343;28;20662;-71
2022/04/23 10:42:14;;;;;;;3.63;3.30;;;22.10;37.90;;;;;;5403122;22;20231;-70
2022/04/23 10:44:42;;;;;;;3.80;3.50;;;22.00;37.90;;;;;;5035475;28;20293;-70
2022/04/23 10:47:14;;;;;;;3.70;3.40;;;22.10;38.50;;;;;;5034299;28;20279;-70
2022/04/23 10:49:42;;;;;;;3.67;3.38;;;22.10;37.90;;;;;;5035511;28;20207;-70
2022/04/23 10:52:10;;;;;;;3.72;3.45;;;22.10;37.80;;;;;;5034173;28;20254;-70
2022/04/23 10:54:57;;;;;;;3.95;3.58;;;22.20;37.80;;;;;;5017793;28;20226;-70
2022/04/23 10:57:25;;;;;;;3.55;3.25;;;22.20;37.90;;;;;;5018976;28;20262;-71
2022/04/23 10:59:52;;;;;;;3.63;3.40;;;22.20;38.00;;;;;;5035603;28;20193;-70
2022/04/23 11:02:32;;;;;;;3.88;3.58;;;22.20;37.90;;;;;;5018170;28;20618;-70
2022/04/23 11:13:24;;;;;;;3.80;3.50;;;22.30;37.80;;;;;;5019498;28;20219;-69
2022/04/23 11:16:14;;;;;;;3.65;3.33;;;22.30;37.90;;;;;;5035682;28;20204;-68
2022/04/23 11:18:42;;;;;;;4.00;3.70;;;22.30;37.80;;;;;;5018882;28;20208;-68
2022/04/23 11:21:17;;;;;;;6.10;5.25;;;22.30;37.90;;;;;;5018958;28;20202;-70
2022/04/23 11:23:47;;;;;;;6.47;5.80;;;22.30;38.00;;;;;;5018513;28;20246;-68
2022/04/23 11:26:14;;;;;;;5.18;4.18;;;22.30;38.00;;;;;;5019172;28;20203;-70
2022/04/23 11:28:41;;;;;;;4.28;3.88;;;22.30;37.90;;;;;;5018883;28;20294;-68
2022/04/23 11:31:10;;;;;;;4.18;3.80;;;22.30;37.90;;;;;;5036413;28;20215;-70
2022/04/23 11:33:37;;;;;;;3.80;3.50;;;22.30;37.90;;;;;;5036642;28;20214;-69
2022/04/23 11:36:05;;;;;;;3.78;3.53;;;22.30;37.80;;;;;;5036052;28;20624;-70
2022/04/23 11:38:32;;;;;;;4.07;3.65;;;22.30;37.70;;;;;;5035687;28;20265;-70
2022/04/23 11:41:00;;;;;;;3.85;3.55;;;22.40;37.90;;;;;;5018980;28;20623;-69
2022/04/23 11:43:35;;;;;;;4.10;3.67;;;22.40;37.90;;;;;;5002472;28;499711;-69
2022/04/23 11:46:03;;;;;;;3.90;3.60;;;22.40;38.00;;;;;;5035757;28;20269;-71
2022/04/23 11:48:43;;;;;;;3.72;3.42;;;22.40;38.60;;;;;;5019670;28;20203;-69
2022/04/23 11:51:12;;;;;;;4.07;3.78;;;22.50;38.00;;;;;;5019631;28;20295;-69
2022/04/23 11:53:54;;;;;;;4.18;3.88;;;22.50;37.90;;;;;;5036039;28;20657;-69
2022/04/23 11:56:24;;;;;;;3.97;3.67;;;22.50;37.70;;;;;;5019504;28;20290;-69
2022/04/23 12:04:07;;;;;;;3.78;3.47;;;22.50;38.00;;;;;;5202782;22;20295;-71
2022/04/23 12:06:44;;;;;;;3.60;3.30;;;22.50;37.90;;;;;;5032385;28;20275;-71
2022/04/23 12:09:12;;;;;;;3.67;3.38;;;22.50;38.10;;;;;;5217027;22;20775;-70
2022/04/23 12:16:42;;;;;;;3.97;3.55;;;22.60;38.70;;;;;;4994721;28;20223;-71
2022/04/23 12:19:10;;;;;;;3.58;3.28;;;22.60;38.20;;;;;;4979425;28;20190;-69
2022/04/23 12:21:38;;;;;;;4.65;3.42;;;22.60;38.50;;;;;;4996030;28;20189;-69
2022/04/23 12:24:07;;;;;;;3.53;3.22;;;22.60;38.60;;;;;;4995557;28;20213;-71
2022/04/23 12:26:35;;;;;;;3.17;2.97;;;22.60;38.30;;;;;;4978181;28;20205;-70
2022/04/23 12:43:20;;;;;;;4.03;3.10;;;22.60;38.70;;;;;;4978006;28;20198;-70
2022/04/23 12:45:47;;;;;;;3.00;2.80;;;22.70;39.50;;;;;;4994199;28;20208;-70
2022/04/23 12:48:16;;;;;;;4.00;3.70;;;22.70;38.80;;;;;;4995518;28;20686;-70
2022/04/23 12:50:43;;;;;;;4.28;3.60;;;22.70;38.60;;;;;;4993940;28;20201;-70
2022/04/23 12:53:11;;;;;;;3.22;3.03;;;22.70;38.70;;;;;;4977577;28;20213;-70
2022/04/23 12:55:38;;;;;;;4.20;3.08;;;22.70;38.50;;;;;;4977653;28;20221;-70
2022/04/23 12:58:08;;;;;;;3.70;3.40;;;22.70;38.60;;;;;;4995059;28;20284;-70
2022/04/23 13:00:36;;;;;;;3.33;3.08;;;22.70;38.70;;;;;;4994883;28;20220;-70
2022/04/23 13:03:14;;;;;;;3.15;2.92;;;22.70;38.70;;;;;;4977495;28;20197;-70
2022/04/23 13:05:43;;;;;;;3.30;3.10;;;22.70;38.70;;;;;;4994898;28;20178;-70
2022/04/23 13:10:54;;;;;;;3.53;3.33;;;22.70;38.70;;;;;;4994913;28;20173;-70
2022/04/23 13:13:21;;;;;;;3.50;3.20;;;22.70;38.50;;;;;;4977199;28;20615;-70
2022/04/23 13:15:48;;;;;;;3.40;3.10;;;22.70;38.50;;;;;;4994879;28;20194;-70
2022/04/23 13:18:15;;;;;;;3.83;3.53;;;22.70;38.70;;;;;;4977347;28;20204;-70
2022/04/23 13:20:43;;;;;;;3.45;3.25;;;22.70;38.60;;;;;;5107254;22;20237;-70
2022/04/23 13:23:10;;;;;;;3.65;3.35;;;22.70;38.60;;;;;;5010355;28;20574;-70
2022/04/23 13:25:37;;;;;;;3.22;3.03;;;22.70;38.80;;;;;;5009944;28;20576;-70
2022/04/23 13:28:04;;;;;;;3.40;3.20;;;22.70;38.80;;;;;;5009747;28;20205;-70
2022/04/23 13:30:31;;;;;;;3.45;3.15;;;22.70;38.80;;;;;;5009588;28;20242;-70
2022/04/23 13:32:59;;;;;;;3.15;2.95;;;22.70;38.80;;;;;;4994338;28;20209;-70
2022/04/23 13:35:26;;;;;;;3.13;2.92;;;22.70;39.40;;;;;;4994841;28;20200;-69
2022/04/23 13:40:38;;;;;;;4.00;3.67;;;22.60;38.80;;;;;;5183262;22;20239;-70
2022/04/23 13:43:05;;;;;;;3.40;3.10;;;22.60;39.00;;;;;;5014918;28;20195;-71
2022/04/23 13:45:34;;;;;;;4.60;3.50;;;22.70;39.10;;;;;;5032371;28;20206;-71
2022/04/23 13:50:42;;;;;;;3.75;3.38;;;22.70;39.60;;;;;;5328145;22;20256;-72
2022/04/23 13:53:10;;;;;;;3.40;3.10;;;22.70;39.00;;;;;;5015595;28;20229;-70
2022/04/23 13:55:39;;;;;;;3.60;3.30;;;22.70;39.00;;;;;;5033563;28;20188;-70